sensor_id;sensor_type;location;lat;lon;timestamp;pressure;altitude;pressure_sealevel;temperature;humidity
59443;BME280;45247;47.466;19.004;2022-12-07T00:01:42;99862.53;;;-0.31;100.00
59443;BME280;45247;47.466;19.004;2022-12-07T00:04:13;99862.59;;;-0.34;100.00
59443;BME280;45247;47.466;19.004;2022-12-07T00:06:42;99857.50;;;-0.40;100.00
59443;BME280;45247;47.466;19.004;2022-12-07T00:09:12;99853.25;;;-0.44;100.00
59443;BME280;45247;47.466;19.004;2022-12-07T00:11:43;99857.69;;;-0.53;100.00
59443;BME280;45247;47.466;19.004;2022-12-07T00:14:14;99847.28;;;-0.49;100.00
59443;BME280;45247;47.466;19.004;2022-12-07T00:16:43;99842.19;;;-0.56;100.00
59443;BME280;45247;47.466;19.004;2022-12-07T00:19:13;99843.06;;;-0.57;100.00
59443;BME280;45247;47.466;19.004;2022-12-07T00:21:42;99847.47;;;-0.62;100.00
59443;BME280;45247;47.466;19.004;2022-12-07T00:24:11;99840.63;;;-0.69;100.00
59443;BME280;45247;47.466;19.004;2022-12-07T00:26:40;99837.38;;;-0.80;100.00
59443;BME280;45247;47.466;19.004;2022-12-07T00:29:14;99839.25;;;-0.91;100.00
59443;BME280;45247;47.466;19.004;2022-12-07T00:31:43;99838.56;;;-1.04;100.00
59443;BME280;45247;47.466;19.004;2022-12-07T00:34:13;99830.97;;;-1.18;100.00
59443;BME280;45247;47.466;19.004;2022-12-07T00:36:41;99833.59;;;-1.21;100.00
59443;BME280;45247;47.466;19.004;2022-12-07T00:39:09;99835.31;;;-1.21;100.00
59443;BME280;45247;47.466;19.004;2022-12-07T00:41:37;99831.06;;;-1.24;100.00
59443;BME280;45247;47.466;19.004;2022-12-07T00:44:05;99831.94;;;-1.27;100.00
59443;BME280;45247;47.466;19.004;2022-12-07T00:46:35;99831.94;;;-1.27;100.00
59443;BME280;45247;47.466;19.004;2022-12-07T00:49:03;99831.06;;;-1.24;100.00
59443;BME280;45247;47.466;19.004;2022-12-07T00:51:31;99823.28;;;-1.24;100.00
59443;BME280;45247;47.466;19.004;2022-12-07T00:54:00;99836.00;;;-1.06;100.00
59443;BME280;45247;47.466;19.004;2022-12-07T00:56:29;99829.88;;;-1.02;100.00
59443;BME280;45247;47.466;19.004;2022-12-07T00:58:58;99828.22;;;-1.07;100.00
59443;BME280;45247;47.466;19.004;2022-12-07T01:01:28;99822.31;;;-1.17;100.00
59443;BME280;45247;47.466;19.004;2022-12-07T01:03:59;99837.69;;;-1.05;100.00
59443;BME280;45247;47.466;19.004;2022-12-07T01:06:28;99828.28;;;-1.10;100.00
59443;BME280;45247;47.466;19.004;2022-12-07T01:08:56;99836.97;;;-1.16;100.00
59443;BME280;45247;47.466;19.004;2022-12-07T01:11:27;99825.91;;;-1.27;100.00
59443;BME280;45247;47.466;19.004;2022-12-07T01:13:57;99820.84;;;-1.36;100.00
59443;BME280;45247;47.466;19.004;2022-12-07T01:16:28;99821.81;;;-1.46;100.00
59443;BME280;45247;47.466;19.004;2022-12-07T01:18:59;99824.47;;;-1.49;100.00
59443;BME280;45247;47.466;19.004;2022-12-07T01:21:29;99825.34;;;-1.52;100.00
59443;BME280;45247;47.466;19.004;2022-12-07T01:24:02;99821.13;;;-1.61;100.00
59443;BME280;45247;47.466;19.004;2022-12-07T01:26:30;99824.56;;;-1.60;100.00
59443;BME280;45247;47.466;19.004;2022-12-07T01:28:58;99824.59;;;-1.62;100.00
59443;BME280;45247;47.466;19.004;2022-12-07T01:31:28;99821.97;;;-1.59;100.00
59443;BME280;45247;47.466;19.004;2022-12-07T01:33:59;99816.72;;;-1.53;100.00
59443;BME280;45247;47.466;19.004;2022-12-07T01:36:29;99813.28;;;-1.55;100.00
59443;BME280;45247;47.466;19.004;2022-12-07T01:38:59;99817.56;;;-1.51;100.00
59443;BME280;45247;47.466;19.004;2022-12-07T01:41:30;99810.66;;;-1.52;100.00
59443;BME280;45247;47.466;19.004;2022-12-07T01:44:15;99817.63;;;-1.54;100.00
59443;BME280;45247;47.466;19.004;2022-12-07T01:46:44;99815.03;;;-1.54;100.00
59443;BME280;45247;47.466;19.004;2022-12-07T01:49:19;99818.47;;;-1.53;100.00
59443;BME280;45247;47.466;19.004;2022-12-07T01:51:49;99813.19;;;-1.47;100.00
59443;BME280;45247;47.466;19.004;2022-12-07T01:54:20;99814.88;;;-1.43;100.00
59443;BME280;45247;47.466;19.004;2022-12-07T01:56:51;99811.31;;;-1.33;100.00
59443;BME280;45247;47.466;19.004;2022-12-07T01:59:23;99802.56;;;-1.24;100.00
59443;BME280;45247;47.466;19.004;2022-12-07T02:01:54;99811.97;;;-1.18;100.00
59443;BME280;45247;47.466;19.004;2022-12-07T02:04:24;99798.13;;;-1.16;100.00
59443;BME280;45247;47.466;19.004;2022-12-07T02:06:53;99794.72;;;-1.18;100.00
59443;BME280;45247;47.466;19.004;2022-12-07T02:09:21;99802.31;;;-1.07;100.00
59443;BME280;45247;47.466;19.004;2022-12-07T02:11:50;99793.59;;;-0.98;100.00
59443;BME280;45247;47.466;19.004;2022-12-07T02:14:18;99797.09;;;-1.04;100.00
59443;BME280;45247;47.466;19.004;2022-12-07T02:16:53;99793.56;;;-0.97;100.00
59443;BME280;45247;47.466;19.004;2022-12-07T02:23:04;99799.44;;;-0.87;100.00
59443;BME280;45247;47.466;19.004;2022-12-07T02:25:55;99799.28;;;-0.75;100.00
59443;BME280;45247;47.466;19.004;2022-12-07T02:28:31;99799.38;;;-0.83;100.00
59443;BME280;45247;47.466;19.004;2022-12-07T02:31:04;99798.47;;;-0.79;100.00
59443;BME280;45247;47.466;19.004;2022-12-07T02:33:36;99797.59;;;-0.79;100.00
59443;BME280;45247;47.466;19.004;2022-12-07T02:36:07;99794.06;;;-0.72;100.00
59443;BME280;45247;47.466;19.004;2022-12-07T02:38:39;99791.38;;;-0.69;100.00
59443;BME280;45247;47.466;19.004;2022-12-07T02:41:10;99796.50;;;-0.63;100.00
59443;BME280;45247;47.466;19.004;2022-12-07T02:43:42;99794.66;;;-0.56;100.00
59443;BME280;45247;47.466;19.004;2022-12-07T02:46:17;99792.91;;;-0.54;100.00
59443;BME280;45247;47.466;19.004;2022-12-07T02:48:47;99793.72;;;-0.51;100.00
59443;BME280;45247;47.466;19.004;2022-12-07T02:51:17;99787.41;;;-0.36;100.00
59443;BME280;45247;47.466;19.004;2022-12-07T02:53:45;99791.69;;;-0.33;100.00
59443;BME280;45247;47.466;19.004;2022-12-07T02:56:23;99777.78;;;-0.29;100.00
59443;BME280;45247;47.466;19.004;2022-12-07T02:59:03;99776.00;;;-0.27;100.00
59443;BME280;45247;47.466;19.004;2022-12-07T03:01:40;99777.72;;;-0.26;100.00
59443;BME280;45247;47.466;19.004;2022-12-07T03:04:25;99776.75;;;-0.19;100.00
59443;BME280;45247;47.466;19.004;2022-12-07T03:07:06;99772.31;;;-0.14;100.00
59443;BME280;45247;47.466;19.004;2022-12-07T03:09:45;99769.59;;;-0.06;100.00
59443;BME280;45247;47.466;19.004;2022-12-07T03:12:21;99772.09;;;-0.02;100.00
59443;BME280;45247;47.466;19.004;2022-12-07T03:15:00;99772.06;;;0.02;100.00
59443;BME280;45247;47.466;19.004;2022-12-07T03:17:31;99769.44;;;0.02;100.00
59443;BME280;45247;47.466;19.004;2022-12-07T03:20:04;99774.56;;;0.06;100.00
59443;BME280;45247;47.466;19.004;2022-12-07T03:22:34;99773.66;;;0.09;100.00
59443;BME280;45247;47.466;19.004;2022-12-07T03:25:05;99778.72;;;0.15;100.00
59443;BME280;45247;47.466;19.004;2022-12-07T03:27:38;99760.50;;;0.16;100.00
59443;BME280;45247;47.466;19.004;2022-12-07T03:30:10;99768.19;;;0.22;100.00
59443;BME280;45247;47.466;19.004;2022-12-07T03:32:43;99773.34;;;0.24;100.00
59443;BME280;45247;47.466;19.004;2022-12-07T03:35:16;99771.50;;;0.29;100.00
59443;BME280;45247;47.466;19.004;2022-12-07T03:37:45;99761.06;;;0.32;100.00
59443;BME280;45247;47.466;19.004;2022-12-07T03:40:19;99760.97;;;0.37;100.00
59443;BME280;45247;47.466;19.004;2022-12-07T03:42:50;99770.50;;;0.36;100.00
59443;BME280;45247;47.466;19.004;2022-12-07T03:45:23;99771.31;;;0.38;100.00
59443;BME280;45247;47.466;19.004;2022-12-07T03:48:02;99772.97;;;0.42;100.00
59443;BME280;45247;47.466;19.004;2022-12-07T03:50:38;99779.81;;;0.46;100.00
59443;BME280;45247;47.466;19.004;2022-12-07T03:53:13;99784.06;;;0.50;100.00
59443;BME280;45247;47.466;19.004;2022-12-07T03:55:44;99783.09;;;0.55;100.00
59443;BME280;45247;47.466;19.004;2022-12-07T03:58:16;99779.50;;;0.62;100.00
59443;BME280;45247;47.466;19.004;2022-12-07T04:00:46;99781.09;;;0.69;100.00
59443;BME280;45247;47.466;19.004;2022-12-07T04:03:15;99780.00;;;0.79;100.00
59443;BME280;45247;47.466;19.004;2022-12-07T04:05:44;99779.00;;;0.86;100.00
59443;BME280;45247;47.466;19.004;2022-12-07T04:08:13;99783.97;;;0.95;100.00
59443;BME280;45247;47.466;19.004;2022-12-07T04:10:41;99782.19;;;0.99;100.00
59443;BME280;45247;47.466;19.004;2022-12-07T04:13:09;99779.38;;;1.07;100.00
59443;BME280;45247;47.466;19.004;2022-12-07T04:15:37;99782.81;;;1.09;100.00
59443;BME280;45247;47.466;19.004;2022-12-07T04:18:06;99785.25;;;1.15;100.00
59443;BME280;45247;47.466;19.004;2022-12-07T04:20:35;99785.25;;;1.16;100.00
59443;BME280;45247;47.466;19.004;2022-12-07T04:23:03;99788.59;;;1.20;100.00
59443;BME280;45247;47.466;19.004;2022-12-07T04:25:33;99793.69;;;1.26;100.00
59443;BME280;45247;47.466;19.004;2022-12-07T04:28:01;99797.84;;;1.33;100.00
59443;BME280;45247;47.466;19.004;2022-12-07T04:30:29;99789.91;;;1.39;100.00
59443;BME280;45247;47.466;19.004;2022-12-07T04:32:57;99795.03;;;1.42;100.00
59443;BME280;45247;47.466;19.004;2022-12-07T04:35:25;99782.75;;;1.47;100.00
59443;BME280;45247;47.466;19.004;2022-12-07T04:37:54;99793.94;;;1.51;100.00
59443;BME280;45247;47.466;19.004;2022-12-07T04:40:23;99788.63;;;1.56;100.00
59443;BME280;45247;47.466;19.004;2022-12-07T04:42:51;99780.59;;;1.65;100.00
59443;BME280;45247;47.466;19.004;2022-12-07T04:45:19;99783.16;;;1.66;100.00
59443;BME280;45247;47.466;19.004;2022-12-07T04:47:47;99787.50;;;1.67;100.00
59443;BME280;45247;47.466;19.004;2022-12-07T04:50:15;99787.50;;;1.66;100.00
59443;BME280;45247;47.466;19.004;2022-12-07T04:52:43;99790.94;;;1.68;100.00
59443;BME280;45247;47.466;19.004;2022-12-07T04:55:13;99796.03;;;1.71;100.00
59443;BME280;45247;47.466;19.004;2022-12-07T04:57:41;99800.25;;;1.77;100.00
59443;BME280;45247;47.466;19.004;2022-12-07T05:00:10;99798.53;;;1.75;100.00
59443;BME280;45247;47.466;19.004;2022-12-07T05:02:38;99799.47;;;1.73;100.00
59443;BME280;45247;47.466;19.004;2022-12-07T05:05:07;99794.09;;;1.79;100.00
59443;BME280;45247;47.466;19.004;2022-12-07T05:07:35;99794.03;;;1.82;100.00
59443;BME280;45247;47.466;19.004;2022-12-07T05:10:04;99794.03;;;1.82;100.00
59443;BME280;45247;47.466;19.004;2022-12-07T05:12:34;99790.47;;;1.86;100.00
59443;BME280;45247;47.466;19.004;2022-12-07T05:15:03;99796.38;;;1.93;100.00
59443;BME280;45247;47.466;19.004;2022-12-07T05:17:32;99787.69;;;1.92;100.00
59443;BME280;45247;47.466;19.004;2022-12-07T05:20:00;99786.88;;;1.90;100.00
59443;BME280;45247;47.466;19.004;2022-12-07T05:22:28;99785.56;;;1.74;100.00
59443;BME280;45247;47.466;19.004;2022-12-07T05:24:56;99795.00;;;1.78;100.00
59443;BME280;45247;47.466;19.004;2022-12-07T05:27:25;99785.56;;;1.74;100.00
59443;BME280;45247;47.466;19.004;2022-12-07T05:29:54;99792.41;;;1.78;100.00
59443;BME280;45247;47.466;19.004;2022-12-07T05:32:22;99787.19;;;1.78;100.00
59443;BME280;45247;47.466;19.004;2022-12-07T05:34:50;99782.91;;;1.77;100.00
59443;BME280;45247;47.466;19.004;2022-12-07T05:37:21;99776.84;;;1.75;100.00
59443;BME280;45247;47.466;19.004;2022-12-07T05:39:49;99780.53;;;1.68;100.00
59443;BME280;45247;47.466;19.004;2022-12-07T05:42:17;99777.16;;;1.64;100.00
59443;BME280;45247;47.466;19.004;2022-12-07T05:44:46;99779.19;;;1.52;100.00
59443;BME280;45247;47.466;19.004;2022-12-07T05:47:16;99774.06;;;1.48;100.00
59443;BME280;45247;47.466;19.004;2022-12-07T05:49:44;99779.19;;;1.52;100.00
59443;BME280;45247;47.466;19.004;2022-12-07T05:52:12;99771.47;;;1.48;100.00
59443;BME280;45247;47.466;19.004;2022-12-07T05:54:40;99777.56;;;1.47;100.00
59443;BME280;45247;47.466;19.004;2022-12-07T05:57:08;99778.47;;;1.45;100.00
59443;BME280;45247;47.466;19.004;2022-12-07T05:59:37;99772.53;;;1.41;100.00
59443;BME280;45247;47.466;19.004;2022-12-07T06:02:06;99784.53;;;1.45;100.00
59443;BME280;45247;47.466;19.004;2022-12-07T06:04:39;99780.22;;;1.44;100.00
59443;BME280;45247;47.466;19.004;2022-12-07T06:07:07;99776.78;;;1.44;100.00
59443;BME280;45247;47.466;19.004;2022-12-07T06:09:36;99784.69;;;1.39;100.00
59443;BME280;45247;47.466;19.004;2022-12-07T06:12:04;99782.16;;;1.36;100.00
59443;BME280;45247;47.466;19.004;2022-12-07T06:14:50;99783.13;;;1.32;100.00
59443;BME280;45247;47.466;19.004;2022-12-07T06:17:18;99777.84;;;1.35;100.00
59443;BME280;45247;47.466;19.004;2022-12-07T06:19:48;99779.50;;;1.39;100.00
59443;BME280;45247;47.466;19.004;2022-12-07T06:22:16;99777.78;;;1.38;100.00
59443;BME280;45247;47.466;19.004;2022-12-07T06:24:44;99781.19;;;1.40;100.00
59443;BME280;45247;47.466;19.004;2022-12-07T06:27:12;99778.47;;;1.45;100.00
59443;BME280;45247;47.466;19.004;2022-12-07T06:29:41;99776.72;;;1.47;100.00
59443;BME280;45247;47.466;19.004;2022-12-07T06:32:09;99783.66;;;1.46;100.00
59443;BME280;45247;47.466;19.004;2022-12-07T06:34:38;99780.16;;;1.47;100.00
59443;BME280;45247;47.466;19.004;2022-12-07T06:37:08;99789.66;;;1.48;100.00
59443;BME280;45247;47.466;19.004;2022-12-07T06:39:36;99788.72;;;1.53;100.00
59443;BME280;45247;47.466;19.004;2022-12-07T06:42:05;99794.75;;;1.55;100.00
59443;BME280;45247;47.466;19.004;2022-12-07T06:44:33;99791.19;;;1.57;100.00
59443;BME280;45247;47.466;19.004;2022-12-07T06:47:01;99797.25;;;1.58;100.00
59443;BME280;45247;47.466;19.004;2022-12-07T06:49:51;99796.31;;;1.60;100.00
59443;BME280;45247;47.466;19.004;2022-12-07T06:52:20;99799.72;;;1.64;100.00
59443;BME280;45247;47.466;19.004;2022-12-07T06:54:48;99801.41;;;1.65;100.00
59443;BME280;45247;47.466;19.004;2022-12-07T06:57:16;99805.66;;;1.69;100.00
59443;BME280;45247;47.466;19.004;2022-12-07T06:59:44;99799.53;;;1.70;100.00
59443;BME280;45247;47.466;19.004;2022-12-07T07:02:13;99799.47;;;1.73;100.00
59443;BME280;45247;47.466;19.004;2022-12-07T07:04:41;99811.53;;;1.77;100.00
59443;BME280;45247;47.466;19.004;2022-12-07T07:07:09;99807.06;;;1.82;100.00
59443;BME280;45247;47.466;19.004;2022-12-07T07:09:38;99803.44;;;1.88;100.00
59443;BME280;45247;47.466;19.004;2022-12-07T07:12:07;99805.91;;;1.92;100.00
59443;BME280;45247;47.466;19.004;2022-12-07T07:14:35;99803.31;;;1.92;100.00
59443;BME280;45247;47.466;19.004;2022-12-07T07:17:03;99800.69;;;1.92;100.00
59443;BME280;45247;47.466;19.004;2022-12-07T07:19:31;99804.06;;;1.97;100.00
59443;BME280;45247;47.466;19.004;2022-12-07T07:21:59;99793.72;;;1.94;100.00
59443;BME280;45247;47.466;19.004;2022-12-07T07:24:27;99805.84;;;1.95;100.00
59443;BME280;45247;47.466;19.004;2022-12-07T07:26:57;99803.22;;;1.95;100.00
59443;BME280;45247;47.466;19.004;2022-12-07T07:29:25;99809.22;;;1.99;100.00
59443;BME280;45247;47.466;19.004;2022-12-07T07:31:53;99804.88;;;1.99;100.00
59443;BME280;45247;47.466;19.004;2022-12-07T07:34:21;99807.31;;;2.06;100.00
59443;BME280;45247;47.466;19.004;2022-12-07T07:36:49;99805.59;;;2.05;100.00
59443;BME280;45247;47.466;19.004;2022-12-07T07:39:17;99805.56;;;2.06;100.00
59443;BME280;45247;47.466;19.004;2022-12-07T07:41:46;99803.69;;;2.11;100.00
59443;BME280;45247;47.466;19.004;2022-12-07T07:44:16;99806.97;;;2.19;100.00
59443;BME280;45247;47.466;19.004;2022-12-07T07:46:44;99797.38;;;2.20;100.00
59443;BME280;45247;47.466;19.004;2022-12-07T07:49:12;99797.22;;;2.26;100.00
59443;BME280;45247;47.466;19.004;2022-12-07T07:51:40;99803.16;;;2.31;100.00
59443;BME280;45247;47.466;19.004;2022-12-07T07:54:08;99795.13;;;2.39;100.00
59443;BME280;45247;47.466;19.004;2022-12-07T07:56:36;99800.19;;;2.43;100.00
59443;BME280;45247;47.466;19.004;2022-12-07T07:59:04;99800.81;;;2.53;100.00
59443;BME280;45247;47.466;19.004;2022-12-07T08:01:34;99800.81;;;2.53;100.00
59443;BME280;45247;47.466;19.004;2022-12-07T08:04:02;99812.53;;;2.68;100.00
59443;BME280;45247;47.466;19.004;2022-12-07T08:06:30;99806.06;;;2.83;100.00
59443;BME280;45247;47.466;19.004;2022-12-07T08:08:58;99807.56;;;2.90;100.00
59443;BME280;45247;47.466;19.004;2022-12-07T08:11:27;99802.75;;;2.76;100.00
59443;BME280;45247;47.466;19.004;2022-12-07T08:13:55;99814.66;;;2.85;100.00
59443;BME280;45247;47.466;19.004;2022-12-07T08:16:23;99809.13;;;2.95;100.00
59443;BME280;45247;47.466;19.004;2022-12-07T08:18:53;99805.34;;;3.06;100.00
59443;BME280;45247;47.466;19.004;2022-12-07T08:21:21;99812.81;;;3.18;100.00
59443;BME280;45247;47.466;19.004;2022-12-07T08:23:49;99803.59;;;3.34;100.00
59443;BME280;45247;47.466;19.004;2022-12-07T08:26:17;99805.19;;;3.38;100.00
59443;BME280;45247;47.466;19.004;2022-12-07T08:28:45;99807.63;;;3.44;100.00
59443;BME280;45247;47.466;19.004;2022-12-07T08:31:16;99821.28;;;3.53;100.00
59443;BME280;45247;47.466;19.004;2022-12-07T08:33:45;99823.69;;;3.59;100.00
59443;BME280;45247;47.466;19.004;2022-12-07T08:36:14;99819.88;;;3.69;100.00
59443;BME280;45247;47.466;19.004;2022-12-07T08:38:43;99821.38;;;3.76;100.00
59443;BME280;45247;47.466;19.004;2022-12-07T08:41:31;99819.63;;;3.76;100.00
59443;BME280;45247;47.466;19.004;2022-12-07T08:43:59;99813.09;;;3.90;100.00
59443;BME280;45247;47.466;19.004;2022-12-07T08:46:30;99809.09;;;4.05;100.00
59443;BME280;45247;47.466;19.004;2022-12-07T08:49:04;99814.09;;;4.11;100.00
59443;BME280;45247;47.466;19.004;2022-12-07T08:51:35;99811.63;;;4.08;100.00
59443;BME280;45247;47.466;19.004;2022-12-07T08:54:08;99815.34;;;4.00;100.00
59443;BME280;45247;47.466;19.004;2022-12-07T08:56:37;99807.44;;;4.02;100.00
59443;BME280;45247;47.466;19.004;2022-12-07T08:59:05;99823.44;;;4.18;100.00
59443;BME280;45247;47.466;19.004;2022-12-07T09:01:34;99818.91;;;4.23;100.00
59443;BME280;45247;47.466;19.004;2022-12-07T09:04:04;99823.13;;;4.27;100.00
59443;BME280;45247;47.466;19.004;2022-12-07T09:06:34;99818.88;;;4.24;100.00
59443;BME280;45247;47.466;19.004;2022-12-07T09:09:07;99817.00;;;4.28;100.00
59443;BME280;45247;47.466;19.004;2022-12-07T09:11:36;99820.25;;;4.35;100.00
59443;BME280;45247;47.466;19.004;2022-12-07T09:14:05;99799.63;;;4.27;100.00
59443;BME280;45247;47.466;19.004;2022-12-07T09:16:34;99807.25;;;4.33;100.00
59443;BME280;45247;47.466;19.004;2022-12-07T09:19:02;99806.53;;;4.28;100.00
59443;BME280;45247;47.466;19.004;2022-12-07T09:21:30;99811.94;;;4.23;100.00
59443;BME280;45247;47.466;19.004;2022-12-07T09:24:00;99807.13;;;4.36;100.00
59443;BME280;45247;47.466;19.004;2022-12-07T09:26:28;99802.59;;;4.41;100.00
59443;BME280;45247;47.466;19.004;2022-12-07T09:28:56;99798.59;;;4.31;100.00
59443;BME280;45247;47.466;19.004;2022-12-07T09:31:25;99800.53;;;4.26;100.00
59443;BME280;45247;47.466;19.004;2022-12-07T09:33:54;99807.44;;;4.27;100.00
59443;BME280;45247;47.466;19.004;2022-12-07T09:36:29;99796.09;;;4.28;100.00
59443;BME280;45247;47.466;19.004;2022-12-07T09:38:57;99794.63;;;4.21;100.00
59443;BME280;45247;47.466;19.004;2022-12-07T09:41:27;99797.22;;;4.21;100.00
59443;BME280;45247;47.466;19.004;2022-12-07T09:44:03;99784.44;;;4.37;100.00
59443;BME280;45247;47.466;19.004;2022-12-07T09:46:34;99790.66;;;4.58;100.00
59443;BME280;45247;47.466;19.004;2022-12-07T09:49:04;99786.69;;;4.71;100.00
59443;BME280;45247;47.466;19.004;2022-12-07T09:51:32;99795.34;;;4.73;100.00
59443;BME280;45247;47.466;19.004;2022-12-07T09:54:01;99785.97;;;4.67;100.00
59443;BME280;45247;47.466;19.004;2022-12-07T09:56:31;99778.44;;;4.58;100.00
59443;BME280;45247;47.466;19.004;2022-12-07T09:59:01;99782.19;;;4.74;100.00
59443;BME280;45247;47.466;19.004;2022-12-07T10:01:32;99778.72;;;4.74;100.00
59443;BME280;45247;47.466;19.004;2022-12-07T10:04:08;99782.84;;;4.81;100.00
59443;BME280;45247;47.466;19.004;2022-12-07T10:06:37;99785.50;;;4.80;100.00
59443;BME280;45247;47.466;19.004;2022-12-07T10:09:10;99778.28;;;4.86;100.00
59443;BME280;45247;47.466;19.004;2022-12-07T10:14:27;99778.72;;;4.97;100.00
59443;BME280;45247;47.466;19.004;2022-12-07T10:17:35;99774.06;;;5.06;100.00
59443;BME280;45247;47.466;19.004;2022-12-07T10:20:16;99773.03;;;5.10;100.00
59443;BME280;45247;47.466;19.004;2022-12-07T10:23:02;99771.25;;;5.10;100.00
59443;BME280;45247;47.466;19.004;2022-12-07T10:25:32;99771.47;;;5.04;100.00
59443;BME280;45247;47.466;19.004;2022-12-07T10:28:09;99764.63;;;5.01;100.00
59443;BME280;45247;47.466;19.004;2022-12-07T10:30:52;99765.47;;;5.24;100.00
59443;BME280;45247;47.466;19.004;2022-12-07T10:33:32;99763.53;;;5.07;100.00
59443;BME280;45247;47.466;19.004;2022-12-07T10:36:16;99765.47;;;5.24;100.00
59443;BME280;45247;47.466;19.004;2022-12-07T10:38:48;99760.91;;;5.29;100.00
59443;BME280;45247;47.466;19.004;2022-12-07T10:41:16;99758.91;;;5.36;100.00
59443;BME280;45247;47.466;19.004;2022-12-07T10:43:50;99761.19;;;5.43;100.00
59443;BME280;45247;47.466;19.004;2022-12-07T10:52:39;99763.47;;;5.52;100.00
59443;BME280;45247;47.466;19.004;2022-12-07T10:55:18;99763.53;;;5.29;100.00
59443;BME280;45247;47.466;19.004;2022-12-07T10:57:58;99763.16;;;5.16;100.00
59443;BME280;45247;47.466;19.004;2022-12-07T11:00:31;99761.19;;;5.21;100.00
59443;BME280;45247;47.466;19.004;2022-12-07T11:06:16;99759.50;;;5.20;100.00
59443;BME280;45247;47.466;19.004;2022-12-07T11:09:00;99751.47;;;5.25;100.00
59443;BME280;45247;47.466;19.004;2022-12-07T11:11:34;99747.81;;;5.29;100.00
59443;BME280;45247;47.466;19.004;2022-12-07T11:14:12;99751.25;;;5.31;100.00
59443;BME280;45247;47.466;19.004;2022-12-07T11:16:52;99745.28;;;5.27;100.00
59443;BME280;45247;47.466;19.004;2022-12-07T11:19:49;99752.97;;;5.31;100.00
59443;BME280;45247;47.466;19.004;2022-12-07T11:22:24;99751.91;;;5.36;100.00
59443;BME280;45247;47.466;19.004;2022-12-07T11:25:02;99751.25;;;5.31;100.00
59443;BME280;45247;47.466;19.004;2022-12-07T11:27:48;99751.34;;;5.28;100.00
59443;BME280;45247;47.466;19.004;2022-12-07T11:30:23;99740.25;;;5.43;100.00
59443;BME280;45247;47.466;19.004;2022-12-07T11:33:04;99728.28;;;5.38;100.00
59443;BME280;45247;47.466;19.004;2022-12-07T11:35:45;99739.28;;;5.46;100.00
59443;BME280;45247;47.466;19.004;2022-12-07T11:38:21;99740.78;;;5.31;100.00
59443;BME280;45247;47.466;19.004;2022-12-07T11:40:59;99745.81;;;5.36;100.00
59443;BME280;45247;47.466;19.004;2022-12-07T11:43:53;99734.78;;;5.49;100.00
59443;BME280;45247;47.466;19.004;2022-12-07T11:46:25;99740.56;;;5.58;100.00
59443;BME280;45247;47.466;19.004;2022-12-07T11:48:57;99734.28;;;5.62;100.00
59443;BME280;45247;47.466;19.004;2022-12-07T11:51:33;99750.88;;;5.61;100.00
59443;BME280;45247;47.466;19.004;2022-12-07T11:54:05;99748.94;;;5.66;100.00
59443;BME280;45247;47.466;19.004;2022-12-07T11:56:39;99752.13;;;5.72;100.00
59443;BME280;45247;47.466;19.004;2022-12-07T11:59:12;99748.34;;;5.80;100.00
59443;BME280;45247;47.466;19.004;2022-12-07T12:01:51;99739.34;;;5.44;100.00
59443;BME280;45247;47.466;19.004;2022-12-07T12:04:32;99740.06;;;5.48;100.00
59443;BME280;45247;47.466;19.004;2022-12-07T12:07:06;99735.66;;;5.28;100.00
59443;BME280;45247;47.466;19.004;2022-12-07T12:09:58;99731.16;;;5.32;100.00
59443;BME280;45247;47.466;19.004;2022-12-07T12:12:42;99723.97;;;5.37;100.00
59443;BME280;45247;47.466;19.004;2022-12-07T12:15:47;99723.84;;;5.40;100.00
59443;BME280;45247;47.466;19.004;2022-12-07T12:18:33;99710.06;;;5.35;100.00
59443;BME280;45247;47.466;19.004;2022-12-07T12:21:08;99714.97;;;5.22;100.00
59443;BME280;45247;47.466;19.004;2022-12-07T12:23:43;99702.22;;;5.14;100.00
59443;BME280;45247;47.466;19.004;2022-12-07T12:26:17;99699.53;;;5.16;100.00
59443;BME280;45247;47.466;19.004;2022-12-07T12:28:53;99699.53;;;4.94;100.00
59443;BME280;45247;47.466;19.004;2022-12-07T12:31:33;99699.53;;;4.94;100.00
59443;BME280;45247;47.466;19.004;2022-12-07T12:34:04;99700.25;;;4.97;100.00
59443;BME280;45247;47.466;19.004;2022-12-07T12:36:54;99688.97;;;4.97;100.00
59443;BME280;45247;47.466;19.004;2022-12-07T12:39:23;99696.63;;;5.01;100.00
59443;BME280;45247;47.466;19.004;2022-12-07T12:41:54;99689.81;;;4.97;100.00
59443;BME280;45247;47.466;19.004;2022-12-07T12:44:42;99686.19;;;5.00;100.00
59443;BME280;45247;47.466;19.004;2022-12-07T12:47:52;99697.09;;;4.89;100.00
59443;BME280;45247;47.466;19.004;2022-12-07T12:50:27;99689.91;;;4.94;100.00
59443;BME280;45247;47.466;19.004;2022-12-07T12:53:11;99692.16;;;5.03;100.00
59443;BME280;45247;47.466;19.004;2022-12-07T12:56:22;99694.28;;;5.16;100.00
59443;BME280;45247;47.466;19.004;2022-12-07T12:59:23;99697.84;;;5.35;100.00
59443;BME280;45247;47.466;19.004;2022-12-07T13:01:54;99697.47;;;5.44;100.00
59443;BME280;45247;47.466;19.004;2022-12-07T13:04:34;99700.63;;;5.52;100.00
59443;BME280;45247;47.466;19.004;2022-12-07T13:07:11;99693.63;;;5.53;100.00
59443;BME280;45247;47.466;19.004;2022-12-07T13:09:43;99699.81;;;5.50;100.00
59443;BME280;45247;47.466;19.004;2022-12-07T13:12:15;99691.56;;;5.39;100.00
59443;BME280;45247;47.466;19.004;2022-12-07T13:14:56;99694.44;;;5.33;100.00
59443;BME280;45247;47.466;19.004;2022-12-07T13:20:43;99707.78;;;5.27;100.00
59443;BME280;45247;47.466;19.004;2022-12-07T13:23:12;99711.56;;;5.20;100.00
59443;BME280;45247;47.466;19.004;2022-12-07T13:25:48;99717.28;;;5.08;100.00
59443;BME280;45247;47.466;19.004;2022-12-07T13:28:22;99712.31;;;5.01;100.00
59443;BME280;45247;47.466;19.004;2022-12-07T13:31:14;99712.78;;;4.89;100.00
59443;BME280;45247;47.466;19.004;2022-12-07T13:33:45;99709.63;;;4.81;100.00